Time;durP1;ratioP1;P1;durP2;ratioP2;P2;SDS_P1;SDS_P2;PMS_P1;PMS_P2;Temp;Humidity;BMP_temperature;BMP_pressure;BME280_temperature;BME280_humidity;BME280_pressure;Samples;Min_cycle;Max_cycle;Signal;HPM_P1;HPM_P2
2022/12/23 00:00:40;;;;;;;11.38;4.30;;;;;;;-140.72;100.00;53198.53;6274277;22;20015;-66
2022/12/23 00:03:09;;;;;;;18.15;5.05;;;;;;;-140.72;100.00;53249.28;6274648;22;20422;-64
2022/12/23 00:05:36;;;;;;;9.45;4.80;;;;;;;-140.72;100.00;53202.59;6273966;22;20191;-65
2022/12/23 00:08:02;;;;;;;10.90;4.75;;;;;;;-140.72;100.00;53231.00;6275145;22;20003;-67
2022/12/23 00:10:27;;;;;;;9.13;4.32;;;;;;;-140.72;100.00;53245.22;6275620;22;20046;-67
2022/12/23 00:15:37;;;;;;;10.40;4.85;;;;;;;-140.72;100.00;53245.22;6302366;22;20313;-65
2022/12/23 00:18:03;;;;;;;15.10;4.88;;;;;;;-140.72;100.00;53184.31;6275132;22;20003;-63
2022/12/23 00:20:29;;;;;;;9.60;4.70;;;;;;;-140.72;100.00;53192.44;6302351;22;20048;-64
2022/12/23 00:23:06;;;;;;;18.17;6.10;;;;;;;-140.72;100.00;53196.50;6273969;22;20034;-65
2022/12/23 00:25:39;;;;;;;11.57;5.57;;;;;;;-140.72;100.00;53190.41;6276484;22;20416;-64
2022/12/23 00:28:18;;;;;;;14.43;6.25;;;;;;;-140.72;100.00;53235.06;6276110;22;20007;-67
2022/12/23 00:30:50;;;;;;;9.55;5.40;;;;;;;-140.72;100.00;53243.19;6303438;22;20429;-64
2022/12/23 00:33:18;;;;;;;12.27;4.32;;;;;;;-140.72;100.00;53206.66;6276724;22;20003;-65
2022/12/23 00:35:45;;;;;;;10.32;4.88;;;;;;;-140.72;100.00;53222.88;6276675;22;20365;-64
2022/12/23 00:38:11;;;;;;;15.82;5.72;;;;;;;-140.72;100.00;53251.31;6304112;22;20003;-63
2022/12/23 00:43:20;;;;;;;18.58;6.47;;;;;;;-140.72;100.00;53214.78;6304042;22;20490;-66
2022/12/23 00:45:46;;;;;;;11.90;6.13;;;;;;;-140.72;100.00;53190.41;6276100;22;20003;-64
2022/12/23 00:50:58;;;;;;;12.40;6.40;;;;;;;-140.72;100.00;53218.81;6303634;22;20041;-67
2022/12/23 00:53:26;;;;;;;14.57;6.10;;;;;;;-140.72;100.00;53206.66;6304586;22;20006;-64
2022/12/23 00:55:52;;;;;;;15.20;5.57;;;;;;;-140.72;100.00;53218.81;6275810;22;19999;-67
2022/12/23 00:58:19;;;;;;;11.02;5.63;;;;;;;-140.72;100.00;53194.47;6276742;22;20029;-67
2022/12/23 01:06:14;;;;;;;18.33;6.63;;;;;;;-140.72;100.00;53208.69;6303833;22;20064;-64
2022/12/23 01:08:39;;;;;;;14.80;5.72;;;;;;;-140.72;100.00;53210.72;6275572;22;20039;-66
2022/12/23 01:11:09;;;;;;;18.40;6.03;;;;;;;-140.72;100.00;53222.88;6303525;22;20007;-65
2022/12/23 01:13:36;;;;;;;20.10;5.28;;;;;;;-140.72;100.00;53233.03;6302365;22;20357;-64
2022/12/23 01:16:10;;;;;;;12.18;6.32;;;;;;;-140.72;100.00;53214.78;6303142;22;20026;-65
2022/12/23 01:18:36;;;;;;;20.95;7.40;;;;;;;-140.72;100.00;53214.78;6303269;22;20006;-66
2022/12/23 01:21:06;;;;;;;21.75;7.22;;;;;;;-140.72;100.00;53231.00;6303320;22;20074;-65
2022/12/23 01:23:32;;;;;;;17.23;7.00;;;;;;;-140.72;100.00;53233.03;6302957;22;20006;-65
2022/12/23 01:26:00;;;;;;;13.95;5.47;;;;;;;-140.72;100.00;53235.06;6274778;22;19999;-65
2022/12/23 01:28:27;;;;;;;15.68;6.82;;;;;;;-140.72;100.00;53247.25;6303509;22;20026;-66
2022/12/23 01:30:52;;;;;;;24.27;6.97;;;;;;;-140.72;100.00;53247.25;6302154;22;20003;-65
2022/12/23 01:33:18;;;;;;;11.60;6.68;;;;;;;-140.72;100.00;53204.63;6303522;22;20073;-66
2022/12/23 01:35:43;;;;;;;13.77;7.32;;;;;;;-140.72;100.00;53194.47;6303431;22;20018;-65
2022/12/23 01:38:08;;;;;;;13.05;6.75;;;;;;;-140.72;100.00;53241.16;6302290;22;20003;-65
2022/12/23 01:40:35;;;;;;;18.15;7.88;;;;;;;-140.72;100.00;53216.78;6302672;22;20007;-64
2022/12/23 01:43:00;;;;;;;12.05;6.53;;;;;;;-140.72;100.00;53198.53;6302845;22;20014;-65
2022/12/23 01:45:31;;;;;;;11.32;6.60;;;;;;;-140.72;100.00;53255.34;6301744;22;19995;-67
2022/12/23 01:48:11;;;;;;;16.15;8.13;;;;;;;-140.72;100.00;53196.50;6302511;22;20070;-65
2022/12/23 01:50:50;;;;;;;12.40;7.47;;;;;;;-140.72;100.00;53243.19;6275525;22;20025;-66
2022/12/23 01:53:20;;;;;;;19.83;8.32;;;;;;;-140.72;100.00;53216.78;6275757;22;20061;-64
2022/12/23 01:55:48;;;;;;;14.07;7.38;;;;;;;-140.72;100.00;53202.59;6275381;22;20086;-64
2022/12/23 01:58:20;;;;;;;15.00;8.05;;;;;;;-140.72;100.00;53202.59;6275491;22;20373;-64
2022/12/23 02:03:42;;;;;;;14.55;7.38;;;;;;;-140.72;100.00;53245.22;6303232;22;20014;-65
2022/12/23 02:09:18;;;;;;;19.95;8.00;;;;;;;-140.72;100.00;53261.44;6302795;22;20036;-66
2022/12/23 02:12:04;;;;;;;11.80;7.03;;;;;;;-140.72;100.00;53247.25;6269977;22;20007;-65
2022/12/23 02:17:30;;;;;;;12.85;7.05;;;;;;;-140.72;100.00;53206.66;6302854;22;20051;-65
2022/12/23 02:20:01;;;;;;;16.10;6.93;;;;;;;-140.72;100.00;53245.22;6301586;22;20018;-64
2022/12/23 02:22:38;;;;;;;7.32;5.03;;;;;;;-140.72;100.00;53247.25;6303126;22;20355;-66
2022/12/23 02:25:16;;;;;;;6.30;5.00;;;;;;;-140.72;100.00;53237.09;6275251;22;20014;-65
2022/12/23 02:27:59;;;;;;;10.32;5.05;;;;;;;-140.72;100.00;53214.78;6301563;22;20018;-65
2022/12/23 02:30:41;;;;;;;8.90;3.97;;;;;;;-140.72;100.00;53206.66;6303441;22;19999;-66
2022/12/23 02:33:31;;;;;;;10.02;4.35;;;;;;;-140.72;100.00;53206.66;6274693;22;20021;-64
2022/12/23 02:36:03;;;;;;;9.48;5.10;;;;;;;-140.72;100.00;53245.22;6275585;22;19995;-67
2022/12/23 02:38:38;;;;;;;7.38;4.00;;;;;;;-140.72;100.00;53186.34;6276222;22;20019;-66
2022/12/23 02:41:15;;;;;;;10.32;4.95;;;;;;;-140.72;100.00;53239.13;6302246;22;20000;-67
2022/12/23 02:43:58;;;;;;;5.40;3.38;;;;;;;-140.72;100.00;53214.78;6275990;22;20003;-65
2022/12/23 02:48:56;;;;;;;10.20;5.45;;;;;;;-140.72;100.00;53216.78;5152568;27;20417;-64
2022/12/23 02:51:26;;;;;;;6.88;4.45;;;;;;;-140.72;100.00;53182.28;5144962;27;20466;-65
2022/12/23 02:53:57;;;;;;;7.32;4.60;;;;;;;-140.72;100.00;53184.31;5145427;27;20039;-66
2022/12/23 02:56:25;;;;;;;9.40;5.60;;;;;;;-140.72;100.00;53198.53;5121022;27;20125;-67
2022/12/23 02:59:32;;;;;;;7.78;4.75;;;;;;;-140.72;100.00;53255.34;5121423;27;20835;-65
2022/12/23 03:01:59;;;;;;;6.22;3.92;;;;;;;-140.72;100.00;53253.31;5135160;27;20035;-65
2022/12/23 03:04:25;;;;;;;6.07;4.25;;;;;;;-140.72;100.00;53200.56;5143127;27;20015;-66
2022/12/23 03:06:52;;;;;;;8.68;4.85;;;;;;;-140.72;100.00;53204.63;5121161;27;20346;-67
2022/12/23 03:09:44;;;;;;;6.88;4.75;;;;;;;-140.72;100.00;53194.47;5124583;27;20019;-64
2022/12/23 03:12:37;;;;;;;9.68;4.40;;;;;;;-140.72;100.00;53200.56;5129606;27;20138;-66
2022/12/23 03:15:29;;;;;;;7.70;4.90;;;;;;;-140.72;100.00;53273.63;5142838;27;20110;-66
2022/12/23 03:18:19;;;;;;;8.35;4.90;;;;;;;-140.72;100.00;53245.22;5119157;27;20527;-64
2022/12/23 03:21:02;;;;;;;10.02;4.82;;;;;;;-140.72;100.00;53214.78;5118552;27;20451;-65
2022/12/23 03:23:34;;;;;;;11.65;5.43;;;;;;;-140.72;100.00;53224.91;5142506;27;20319;-67
2022/12/23 03:26:11;;;;;;;6.85;4.45;;;;;;;-140.72;100.00;53212.75;5135179;27;20161;-65
2022/12/23 03:28:48;;;;;;;7.53;4.20;;;;;;;-140.72;100.00;53231.00;5145482;27;20018;-64
2022/12/23 03:31:20;;;;;;;7.18;4.75;;;;;;;-140.72;100.00;53251.31;5145269;27;20030;-67
2022/12/23 03:33:53;;;;;;;9.43;5.35;;;;;;;-140.72;100.00;53218.81;5137165;27;20157;-66
2022/12/23 03:36:27;;;;;;;8.25;5.47;;;;;;;-140.72;100.00;53249.28;5142865;27;20035;-65
2022/12/23 03:38:54;;;;;;;9.23;4.90;;;;;;;-140.72;100.00;53255.34;5143301;27;20309;-66
2022/12/23 03:41:34;;;;;;;6.70;4.53;;;;;;;-140.72;100.00;53214.78;5141619;27;20023;-66
2022/12/23 03:44:05;;;;;;;;;;;;;;;-140.72;100.00;53231.00;5145869;27;20023;-65
2022/12/23 03:46:44;;;;;;;7.38;4.22;;;;;;;-140.72;100.00;53224.91;5123158;27;20339;-65
2022/12/23 03:49:27;;;;;;;8.87;5.80;;;;;;;-140.72;100.00;53247.25;5143916;27;20113;-65
2022/12/23 03:52:15;;;;;;;9.20;5.18;;;;;;;-140.72;100.00;53251.31;5142926;27;20015;-67
2022/12/23 03:54:52;;;;;;;6.32;4.28;;;;;;;-140.72;100.00;53243.19;5136808;27;20072;-64
2022/12/23 03:57:21;;;;;;;7.82;4.75;;;;;;;-140.72;100.00;53226.94;5145052;27;20075;-66
2022/12/23 03:59:52;;;;;;;8.65;5.53;;;;;;;-140.72;100.00;53212.75;5132589;27;20455;-65
2022/12/23 04:02:37;;;;;;;9.27;5.20;;;;;;;-140.72;100.00;53218.81;5130576;27;20027;-67
2022/12/23 04:05:18;;;;;;;6.28;4.60;;;;;;;-140.72;100.00;53259.41;5127086;27;20019;-65
2022/12/23 04:07:53;;;;;;;8.55;5.03;;;;;;;-140.72;100.00;53206.66;5127268;27;20339;-65
2022/12/23 04:10:20;;;;;;;8.68;5.63;;;;;;;-140.72;100.00;53263.47;5126869;27;20117;-65
2022/12/23 04:12:46;;;;;;;9.48;5.53;;;;;;;-140.72;100.00;53212.75;5127693;27;20034;-65
2022/12/23 04:15:11;;;;;;;6.63;4.53;;;;;;;-140.72;100.00;53251.31;5128576;27;20019;-66
2022/12/23 04:17:37;;;;;;;8.95;5.45;;;;;;;-140.72;100.00;53269.56;5126027;27;20067;-66
2022/12/23 04:20:03;;;;;;;9.40;5.47;;;;;;;-140.72;100.00;53243.19;5130070;27;20071;-65
2022/12/23 04:22:28;;;;;;;9.45;6.60;;;;;;;-140.72;100.00;53265.50;5129437;27;20409;-67
2022/12/23 04:24:53;;;;;;;10.15;6.32;;;;;;;-140.72;100.00;53239.13;5127157;27;20098;-64
2022/12/23 04:27:19;;;;;;;8.90;5.20;;;;;;;-140.72;100.00;53273.63;5130185;27;20025;-65
2022/12/23 04:29:45;;;;;;;12.65;6.40;;;;;;;-140.72;100.00;53222.88;5128018;27;20098;-65
2022/12/23 04:32:11;;;;;;;9.77;5.88;;;;;;;-140.72;100.00;53245.22;5126143;27;20106;-64
2022/12/23 04:34:36;;;;;;;8.07;5.32;;;;;;;-140.72;100.00;53247.25;5130081;27;20097;-67
2022/12/23 04:37:02;;;;;;;9.77;6.28;;;;;;;-140.72;100.00;53231.00;5128363;27;20028;-65
2022/12/23 04:39:27;;;;;;;10.18;6.88;;;;;;;-140.72;100.00;53257.38;5126911;27;20426;-64
2022/12/23 04:41:53;;;;;;;8.25;5.90;;;;;;;-140.72;100.00;53208.69;5130334;27;20344;-67
2022/12/23 04:44:18;;;;;;;13.98;6.97;;;;;;;-140.72;100.00;53198.53;5130655;27;20053;-66
2022/12/23 04:46:43;;;;;;;10.90;6.22;;;;;;;-140.72;100.00;53214.78;5126822;27;20126;-65
2022/12/23 04:49:09;;;;;;;10.93;6.38;;;;;;;-140.72;100.00;53247.25;5126624;27;20105;-66
2022/12/23 04:51:34;;;;;;;18.88;7.00;;;;;;;-140.72;100.00;53243.19;5128027;27;20023;-66
2022/12/23 04:53:59;;;;;;;9.73;5.18;;;;;;;-140.72;100.00;53243.19;5128431;27;20019;-64
2022/12/23 04:56:25;;;;;;;9.15;6.22;;;;;;;-140.72;100.00;53251.31;5123719;27;20273;-66
2022/12/23 04:58:50;;;;;;;10.80;5.68;;;;;;;-140.72;100.00;53257.38;5122768;27;20432;-64
2022/12/23 05:01:16;;;;;;;8.85;5.57;;;;;;;-140.72;100.00;53263.47;5122622;27;20035;-66
2022/12/23 05:03:41;;;;;;;9.02;6.15;;;;;;;-140.72;100.00;53196.50;5123766;27;20019;-67
2022/12/23 05:06:07;;;;;;;13.02;5.75;;;;;;;-140.72;100.00;53253.31;5128645;27;20019;-67
2022/12/23 05:08:32;;;;;;;7.32;6.00;;;;;;;-140.72;100.00;53255.34;5127389;27;20126;-66
2022/12/23 05:10:58;;;;;;;14.98;6.82;;;;;;;-140.72;100.00;53253.31;5125824;27;20057;-64
2022/12/23 05:13:24;;;;;;;9.90;6.57;;;;;;;-140.72;100.00;53247.25;5130526;27;20058;-64
2022/12/23 05:15:53;;;;;;;9.70;6.40;;;;;;;-140.72;100.00;53231.00;5127886;27;20117;-65
2022/12/23 05:18:24;;;;;;;11.35;7.75;;;;;;;-140.72;100.00;53239.13;5127605;27;20276;-66
2022/12/23 05:20:50;;;;;;;13.85;7.43;;;;;;;-140.72;100.00;53273.63;5126131;27;20091;-65
2022/12/23 05:23:15;;;;;;;14.38;7.00;;;;;;;-140.72;100.00;53251.31;5122988;27;20035;-66
2022/12/23 05:25:41;;;;;;;10.80;6.53;;;;;;;-140.72;100.00;53243.19;5125510;27;20109;-65
2022/12/23 05:28:09;;;;;;;14.45;8.32;;;;;;;-140.72;100.00;53243.19;5127610;27;20026;-65
2022/12/23 05:30:34;;;;;;;10.10;6.78;;;;;;;-140.72;100.00;53237.09;5125130;27;20020;-66
2022/12/23 05:33:00;;;;;;;14.65;8.25;;;;;;;-140.72;100.00;53239.13;5127960;27;20015;-65
2022/12/23 05:35:26;;;;;;;11.35;7.57;;;;;;;-140.72;100.00;53228.97;5128279;27;20023;-67
2022/12/23 05:37:52;;;;;;;13.50;7.93;;;;;;;-140.72;100.00;53253.31;5126337;27;20027;-67
2022/12/23 05:40:18;;;;;;;11.73;7.88;;;;;;;-140.72;100.00;53237.09;5128326;27;20046;-65
2022/12/23 05:42:43;;;;;;;12.60;8.38;;;;;;;-140.72;100.00;53224.91;5124517;27;20026;-64
2022/12/23 05:45:09;;;;;;;12.57;7.18;;;;;;;-140.72;100.00;53259.41;5127448;27;20030;-66
2022/12/23 05:47:35;;;;;;;10.38;7.57;;;;;;;-140.72;100.00;53291.88;5126728;27;20053;-64
2022/12/23 05:50:01;;;;;;;13.82;8.18;;;;;;;-140.72;100.00;53214.78;5124734;27;20106;-67
2022/12/23 05:52:27;;;;;;;11.77;7.18;;;;;;;-140.72;100.00;53212.75;5126595;27;20367;-65
2022/12/23 05:54:52;;;;;;;13.90;8.07;;;;;;;-140.72;100.00;53233.03;5126848;27;20023;-65
2022/12/23 05:57:21;;;;;;;13.77;7.95;;;;;;;-140.72;100.00;53239.13;5129055;27;20030;-65
2022/12/23 05:59:46;;;;;;;10.95;7.32;;;;;;;-140.72;100.00;53196.50;5127220;27;20019;-65
2022/12/23 06:02:12;;;;;;;13.90;7.55;;;;;;;-140.72;100.00;53231.00;5129086;27;20022;-67
2022/12/23 06:04:37;;;;;;;11.30;7.43;;;;;;;-140.72;100.00;53218.81;5127007;27;20110;-66
2022/12/23 06:07:02;;;;;;;10.68;7.07;;;;;;;-140.72;100.00;53251.31;5125066;27;20054;-65
2022/12/23 06:09:28;;;;;;;11.82;7.97;;;;;;;-140.72;100.00;53291.88;5125861;27;20250;-66
2022/12/23 06:11:53;;;;;;;11.32;7.72;;;;;;;-140.72;100.00;53233.03;5125443;27;20022;-65
2022/12/23 06:14:18;;;;;;;13.68;8.00;;;;;;;-140.72;100.00;53253.31;5128675;27;20023;-68
2022/12/23 06:16:46;;;;;;;12.32;8.48;;;;;;;-140.72;100.00;53239.13;5130166;27;20018;-65
2022/12/23 06:19:12;;;;;;;12.43;7.78;;;;;;;-140.72;100.00;53291.88;5126381;27;20026;-66
2022/12/23 06:21:37;;;;;;;15.98;8.55;;;;;;;-140.72;100.00;53214.78;5126993;27;20503;-65
2022/12/23 06:24:06;;;;;;;13.98;8.32;;;;;;;-140.72;100.00;53287.84;5126717;27;20099;-65
2022/12/23 06:26:32;;;;;;;13.55;7.63;;;;;;;-140.72;100.00;53259.41;5128147;27;20368;-66
2022/12/23 06:28:59;;;;;;;10.40;7.57;;;;;;;-140.72;100.00;53239.13;5125793;27;20059;-66
2022/12/23 06:31:24;;;;;;;13.00;7.25;;;;;;;-140.72;100.00;53259.41;5123592;27;20160;-67
2022/12/23 06:33:49;;;;;;;11.77;7.32;;;;;;;-140.72;100.00;53259.41;5122412;27;20114;-67
2022/12/23 06:36:15;;;;;;;10.18;6.85;;;;;;;-140.72;100.00;53228.97;5128239;27;20210;-67
2022/12/23 06:38:40;;;;;;;12.77;7.80;;;;;;;-140.72;100.00;53222.88;5124409;27;20114;-67
2022/12/23 06:41:06;;;;;;;13.50;8.18;;;;;;;-140.72;100.00;53245.22;5126103;27;20027;-65
2022/12/23 06:43:32;;;;;;;13.27;8.82;;;;;;;-140.72;100.00;53261.44;5125101;27;20027;-65
2022/12/23 06:45:57;;;;;;;10.35;6.97;;;;;;;-140.72;100.00;53241.16;5127798;28;20082;-65
2022/12/23 06:48:23;;;;;;;12.27;7.78;;;;;;;-140.72;100.00;53214.78;5125435;28;20035;-64
2022/12/23 06:50:48;;;;;;;14.70;8.13;;;;;;;-140.72;100.00;53295.94;5124330;28;20043;-65
2022/12/23 06:53:16;;;;;;;16.10;9.43;;;;;;;-140.72;100.00;53241.16;5128231;28;20075;-65
2022/12/23 06:55:41;;;;;;;14.63;10.52;;;;;;;-140.72;100.00;53257.38;5124388;28;20023;-64
2022/12/23 06:58:07;;;;;;;17.10;9.27;;;;;;;-140.72;100.00;53235.06;5126505;28;20101;-65
2022/12/23 07:00:33;;;;;;;13.88;9.50;;;;;;;-140.72;100.00;53255.34;5123182;28;20023;-64
2022/12/23 07:02:58;;;;;;;15.50;8.85;;;;;;;-140.72;100.00;53235.06;5120771;28;20070;-67
2022/12/23 07:05:23;;;;;;;11.43;8.02;;;;;;;-140.72;100.00;53239.13;5127720;28;20059;-64
2022/12/23 07:07:49;;;;;;;11.63;7.57;;;;;;;-140.72;100.00;53231.00;5123925;28;20451;-65
2022/12/23 07:10:14;;;;;;;14.05;8.07;;;;;;;-140.72;100.00;53249.28;5128354;28;20030;-65
2022/12/23 07:12:39;;;;;;;13.55;8.45;;;;;;;-140.72;100.00;53279.72;5125480;28;20032;-61
2022/12/23 07:15:06;;;;;;;11.05;7.53;;;;;;;-140.72;100.00;53218.81;5128341;28;20350;-65
2022/12/23 07:17:32;;;;;;;12.30;7.93;;;;;;;-140.72;100.00;53239.13;5123247;28;20020;-65
2022/12/23 07:19:57;;;;;;;12.85;7.05;;;;;;;-140.72;100.00;53263.47;5127755;28;20064;-66
2022/12/23 07:22:23;;;;;;;14.57;8.10;;;;;;;-140.72;100.00;53279.72;5122996;28;20030;-66
2022/12/23 07:24:48;;;;;;;12.48;7.05;;;;;;;-140.72;100.00;53263.47;5127093;28;20011;-64
2022/12/23 07:27:16;;;;;;;11.25;7.15;;;;;;;-140.72;100.00;53235.06;5125778;28;20031;-65
2022/12/23 07:29:42;;;;;;;11.30;6.25;;;;;;;-140.72;100.00;53243.19;5123841;28;20114;-65
2022/12/23 07:32:07;;;;;;;8.85;5.38;;;;;;;-140.72;100.00;53279.72;5127240;28;20102;-65
2022/12/23 07:34:33;;;;;;;12.73;5.60;;;;;;;-140.72;100.00;53239.13;5124231;27;20460;-64
2022/12/23 07:36:58;;;;;;;14.13;5.82;;;;;;;-140.72;100.00;53237.09;5126714;27;20415;-66
2022/12/23 07:39:24;;;;;;;11.65;6.18;;;;;;;-140.72;100.00;53239.13;5129023;27;20021;-65
2022/12/23 07:41:49;;;;;;;10.77;5.50;;;;;;;-140.72;100.00;53243.19;5126143;27;20439;-64
2022/12/23 07:44:14;;;;;;;9.75;5.22;;;;;;;-140.72;100.00;53263.47;5129974;27;20127;-65
2022/12/23 07:46:40;;;;;;;16.90;5.47;;;;;;;-140.72;100.00;53267.53;5130219;27;20035;-65
2022/12/23 07:49:05;;;;;;;10.85;5.25;;;;;;;-140.72;100.00;53263.47;5131165;27;20058;-67
2022/12/23 07:51:33;;;;;;;10.23;4.97;;;;;;;-140.72;100.00;53239.13;5128312;27;20323;-65
2022/12/23 07:53:58;;;;;;;12.90;6.00;;;;;;;-140.72;100.00;53269.56;5130046;27;20035;-65
2022/12/23 07:56:24;;;;;;;10.00;4.90;;;;;;;-140.72;100.00;53279.72;5129139;27;20103;-64
2022/12/23 07:58:51;;;;;;;9.65;4.45;;;;;;;-140.72;100.00;53269.56;5129912;27;20050;-64
2022/12/23 08:01:20;;;;;;;12.00;5.57;;;;;;;-140.72;100.00;53281.75;5130270;27;20050;-66
2022/12/23 08:03:48;;;;;;;10.43;4.88;;;;;;;-140.72;100.00;53216.78;5125342;27;20028;-67
2022/12/23 08:06:15;;;;;;;9.13;4.13;;;;;;;-140.72;100.00;53231.00;5126676;27;20415;-66
2022/12/23 08:08:43;;;;;;;9.30;4.95;;;;;;;-140.72;100.00;53275.66;5127594;27;20602;-65
2022/12/23 08:11:10;;;;;;;11.73;5.60;;;;;;;-140.72;100.00;53251.31;5128276;27;20022;-64
2022/12/23 08:13:38;;;;;;;9.45;4.47;;;;;;;-140.72;100.00;53287.84;5121513;27;20489;-66
2022/12/23 08:16:05;;;;;;;10.90;5.05;;;;;;;-140.72;100.00;53235.06;5125413;27;20015;-64
2022/12/23 08:18:33;;;;;;;8.57;4.32;;;;;;;-140.72;100.00;53228.97;5120405;27;20031;-65
2022/12/23 08:21:03;;;;;;;9.60;4.88;;;;;;;-140.72;100.00;53255.34;5129363;27;20023;-65
2022/12/23 08:23:29;;;;;;;12.30;5.15;;;;;;;-140.72;100.00;53231.00;5113417;27;20031;-64
2022/12/23 08:26:18;;;;;;;9.88;4.32;;;;;;;-140.72;100.00;53247.25;5126902;27;20023;-66
2022/12/23 08:28:44;;;;;;;9.95;5.80;;;;;;;-140.72;100.00;53239.13;5124001;27;20374;-67
2022/12/23 08:31:17;;;;;;;9.45;5.32;;;;;;;-140.72;100.00;53226.94;5124852;27;20028;-66
2022/12/23 08:33:46;;;;;;;7.28;4.10;;;;;;;-140.72;100.00;53263.47;5126997;27;20036;-65
2022/12/23 08:36:18;;;;;;;11.50;4.80;;;;;;;-140.72;100.00;53243.19;5116810;27;20110;-64
2022/12/23 08:38:43;;;;;;;10.40;4.53;;;;;;;-140.72;100.00;53255.34;5122860;27;20418;-64
2022/12/23 08:41:19;;;;;;;12.63;5.05;;;;;;;-140.72;100.00;53216.78;5125340;27;20027;-66
2022/12/23 08:43:45;;;;;;;6.57;3.80;;;;;;;-140.72;100.00;53241.16;5128933;27;20027;-65
2022/12/23 08:46:10;;;;;;;12.23;5.28;;;;;;;-140.72;100.00;53216.78;5117327;27;20039;-63
2022/12/23 08:48:37;;;;;;;10.35;5.97;;;;;;;-140.72;100.00;53247.25;5125237;27;20387;-64
2022/12/23 08:51:04;;;;;;;10.98;5.53;;;;;;;-140.72;100.00;53255.34;5119402;27;20458;-65
2022/12/23 08:53:30;;;;;;;8.43;4.03;;;;;;;-140.72;100.00;53222.88;5111264;27;20061;-66
2022/12/23 08:56:01;;;;;;;8.20;4.20;;;;;;;-140.72;100.00;53271.59;5113152;27;20062;-65
2022/12/23 08:58:26;;;;;;;8.60;5.45;;;;;;;-140.72;100.00;53235.06;5124794;27;20035;-63
2022/12/23 09:00:52;;;;;;;9.05;5.57;;;;;;;-140.72;100.00;53269.56;5119113;27;20027;-63
2022/12/23 09:03:17;;;;;;;9.68;5.50;;;;;;;-140.72;100.00;53261.44;5120036;27;20015;-64
2022/12/23 09:05:42;;;;;;;13.10;6.03;;;;;;;-140.72;100.00;53243.19;5126744;27;20047;-65
2022/12/23 09:08:08;;;;;;;12.30;6.28;;;;;;;-140.72;100.00;53243.19;5126028;27;20023;-63
2022/12/23 09:10:39;;;;;;;9.35;5.10;;;;;;;-140.72;100.00;53249.28;5128726;27;20034;-64
2022/12/23 09:13:04;;;;;;;10.80;6.07;;;;;;;-140.72;100.00;53265.50;5122745;27;20046;-61
2022/12/23 09:15:29;;;;;;;15.57;6.80;;;;;;;-140.72;100.00;53243.19;5122411;27;20015;-63
2022/12/23 09:17:55;;;;;;;12.15;5.40;;;;;;;-140.72;100.00;53241.16;5128311;27;20478;-64
2022/12/23 09:20:20;;;;;;;11.38;6.00;;;;;;;-140.72;100.00;53226.94;5129162;27;20458;-63
2022/12/23 09:22:45;;;;;;;8.52;5.13;;;;;;;-140.72;100.00;53271.59;5129809;27;20027;-64
2022/12/23 09:25:11;;;;;;;11.40;5.65;;;;;;;-140.72;100.00;53271.59;5126105;27;20467;-63
2022/12/23 09:27:36;;;;;;;15.13;5.47;;;;;;;-140.72;100.00;53235.06;5128984;27;20106;-63
2022/12/23 09:30:05;;;;;;;23.40;8.10;;;;;;;-140.72;100.00;53267.53;5127464;27;20094;-64
2022/12/23 09:32:30;;;;;;;18.05;7.90;;;;;;;-140.72;100.00;53295.94;5126414;27;20039;-62
2022/12/23 09:34:56;;;;;;;18.73;7.65;;;;;;;-140.72;100.00;53243.19;5125454;27;20090;-63
2022/12/23 09:37:24;;;;;;;16.80;7.82;;;;;;;-140.72;100.00;53275.66;5122793;27;20073;-64
2022/12/23 09:39:50;;;;;;;29.33;9.50;;;;;;;-140.72;100.00;53255.34;5124420;27;20035;-65
2022/12/23 09:42:33;;;;;;;13.88;7.43;;;;;;;-140.72;100.00;53184.31;5125767;27;20381;-63
2022/12/23 09:45:17;;;;;;;20.83;8.65;;;;;;;-140.72;100.00;53263.47;5113474;27;20113;-63
2022/12/23 09:47:43;;;;;;;22.65;8.90;;;;;;;-140.72;100.00;53245.22;5121371;27;20047;-63
2022/12/23 09:50:22;;;;;;;18.83;8.48;;;;;;;-140.72;100.00;53235.06;5120735;27;20102;-64
2022/12/23 09:52:59;;;;;;;22.02;9.65;;;;;;;-140.72;100.00;53257.38;5122145;27;20359;-63
2022/12/23 09:55:36;;;;;;;14.65;8.25;;;;;;;-140.72;100.00;53198.53;5119736;27;21094;-64
2022/12/23 09:58:13;;;;;;;24.80;8.77;;;;;;;-140.72;100.00;53237.09;5119745;27;20027;-63
2022/12/23 10:00:47;;;;;;;21.67;9.57;;;;;;;-140.72;100.00;53237.09;5126673;27;20031;-65
2022/12/23 10:03:31;;;;;;;24.95;10.35;;;;;;;-140.72;100.00;53265.50;5117668;27;20474;-63
2022/12/23 10:06:06;;;;;;;30.63;9.88;;;;;;;-140.72;100.00;53281.75;5123308;27;20023;-65
2022/12/23 10:08:44;;;;;;;23.17;11.00;;;;;;;-140.72;100.00;53243.19;5123863;27;20019;-63
2022/12/23 10:11:25;;;;;;;27.35;12.80;;;;;;;-140.72;100.00;53235.06;5124944;27;20055;-64
2022/12/23 10:14:08;;;;;;;25.45;11.02;;;;;;;-140.72;100.00;53275.66;5128221;27;20019;-66
2022/12/23 10:16:38;;;;;;;22.95;9.85;;;;;;;-140.72;100.00;53269.56;5124309;27;20462;-64
2022/12/23 10:19:26;;;;;;;36.55;14.70;;;;;;;-140.72;100.00;53257.38;5127485;27;20035;-65
2022/12/23 10:22:00;;;;;;;27.02;10.13;;;;;;;-140.72;100.00;53226.94;5125097;27;20030;-65
2022/12/23 10:24:39;;;;;;;29.83;12.30;;;;;;;-140.72;100.00;53261.44;5126260;27;20488;-63
2022/12/23 10:27:37;;;;;;;22.98;11.63;;;;;;;-140.72;100.00;53204.63;5125440;27;20023;-63
2022/12/23 10:30:17;;;;;;;25.13;12.73;;;;;;;-140.72;100.00;53243.19;5124643;27;20029;-63
2022/12/23 10:32:51;;;;;;;26.33;11.60;;;;;;;-140.72;100.00;53233.03;5125711;27;20374;-63
2022/12/23 10:35:31;;;;;;;27.65;11.50;;;;;;;-140.72;100.00;53206.66;5122197;27;20054;-66
2022/12/23 10:38:10;;;;;;;20.13;11.02;;;;;;;-140.72;100.00;53255.34;5116574;27;20026;-64
2022/12/23 10:40:50;;;;;;;24.60;12.73;;;;;;;-140.72;100.00;53251.31;5125907;27;20031;-63
2022/12/23 10:43:18;;;;;;;24.00;11.43;;;;;;;-140.72;100.00;53255.34;5124565;27;20047;-64
2022/12/23 10:46:01;;;;;;;19.05;9.93;;;;;;;-140.72;100.00;53261.44;5121948;27;20106;-65
2022/12/23 10:49:04;;;;;;;19.75;11.13;;;;;;;-140.72;100.00;53233.03;5120303;28;20078;-62
2022/12/23 10:51:45;;;;;;;20.63;9.80;;;;;;;-140.72;100.00;53239.13;5124506;28;20027;-64
2022/12/23 10:54:16;;;;;;;24.08;11.98;;;;;;;-140.72;100.00;53222.88;5122940;28;20025;-63
2022/12/23 10:56:42;;;;;;;22.13;11.60;;;;;;;-140.72;100.00;53271.59;5122661;28;21168;-65
2022/12/23 10:59:14;;;;;;;18.42;11.73;;;;;;;-140.72;100.00;53233.03;5116731;28;20357;-62
2022/12/23 11:01:41;;;;;;;24.88;11.90;;;;;;;-140.72;100.00;53275.66;5124582;28;20039;-65
2022/12/23 11:04:16;;;;;;;20.08;11.27;;;;;;;-140.72;100.00;53216.78;5123810;28;20051;-65
2022/12/23 11:06:46;;;;;;;19.70;12.10;;;;;;;-140.72;100.00;53259.41;5125051;28;20052;-63
2022/12/23 11:09:20;;;;;;;19.85;13.05;;;;;;;-140.72;100.00;53275.66;5120740;27;20045;-65
2022/12/23 11:12:07;;;;;;;20.35;12.85;;;;;;;-140.72;100.00;53273.63;5128965;27;20076;-64
2022/12/23 11:14:38;;;;;;;21.10;11.13;;;;;;;-140.72;100.00;53216.78;5122052;27;20375;-64
2022/12/23 11:17:16;;;;;;;33.20;12.77;;;;;;;-140.72;100.00;53218.81;5130641;27;20023;-65
2022/12/23 11:19:42;;;;;;;19.52;12.50;;;;;;;-140.72;100.00;53228.97;5126410;27;20266;-64
2022/12/23 11:22:24;;;;;;;21.67;12.68;;;;;;;-140.72;100.00;53287.84;5119707;27;20023;-64
2022/12/23 11:24:50;;;;;;;21.10;13.18;;;;;;;-140.72;100.00;53279.72;5126025;27;20042;-63
2022/12/23 11:27:17;;;;;;;23.05;13.40;;;;;;;-140.72;100.00;53257.38;5125456;27;20022;-63
2022/12/23 11:29:49;;;;;;;24.33;13.77;;;;;;;-140.72;100.00;53261.44;5130657;27;20094;-62
2022/12/23 11:32:23;;;;;;;20.77;13.50;;;;;;;-140.72;100.00;53247.25;5127736;27;20012;-65
2022/12/23 11:34:50;;;;;;;26.17;16.17;;;;;;;-140.72;100.00;53259.41;5129922;27;20062;-64
2022/12/23 11:37:27;;;;;;;30.52;15.93;;;;;;;-140.72;100.00;53237.09;5127017;27;20042;-64
2022/12/23 11:39:52;;;;;;;31.58;14.73;;;;;;;-140.72;100.00;53249.28;5127481;27;20037;-65